sensor_id;sensor_type;location;lat;lon;timestamp;P1;durP1;ratioP1;P2;durP2;ratioP2
78844;SDS011;68195;50.854;2.860;2023-05-29T00:02:03;16.73;;;7.18;;
78844;SDS011;68195;50.854;2.860;2023-05-29T00:04:33;13.05;;;5.80;;
78844;SDS011;68195;50.854;2.860;2023-05-29T00:07:00;16.58;;;6.18;;
78844;SDS011;68195;50.854;2.860;2023-05-29T00:09:25;11.02;;;5.40;;
78844;SDS011;68195;50.854;2.860;2023-05-29T00:11:51;15.23;;;6.13;;
78844;SDS011;68195;50.854;2.860;2023-05-29T00:14:21;14.13;;;5.78;;
78844;SDS011;68195;50.854;2.860;2023-05-29T00:16:48;20.90;;;7.60;;
78844;SDS011;68195;50.854;2.860;2023-05-29T00:19:15;18.90;;;7.05;;
78844;SDS011;68195;50.854;2.860;2023-05-29T00:21:45;10.55;;;5.75;;
78844;SDS011;68195;50.854;2.860;2023-05-29T00:24:16;12.35;;;6.63;;
78844;SDS011;68195;50.854;2.860;2023-05-29T00:26:42;11.63;;;5.65;;
78844;SDS011;68195;50.854;2.860;2023-05-29T00:29:07;16.27;;;6.68;;
78844;SDS011;68195;50.854;2.860;2023-05-29T00:31:36;14.90;;;6.70;;
78844;SDS011;68195;50.854;2.860;2023-05-29T00:34:03;14.40;;;6.32;;
78844;SDS011;68195;50.854;2.860;2023-05-29T00:36:29;14.25;;;6.50;;
78844;SDS011;68195;50.854;2.860;2023-05-29T00:38:54;13.27;;;5.88;;
78844;SDS011;68195;50.854;2.860;2023-05-29T00:41:20;13.00;;;6.50;;
78844;SDS011;68195;50.854;2.860;2023-05-29T00:43:45;14.23;;;6.70;;
78844;SDS011;68195;50.854;2.860;2023-05-29T00:46:14;10.82;;;5.65;;
78844;SDS011;68195;50.854;2.860;2023-05-29T00:48:41;12.82;;;5.18;;
78844;SDS011;68195;50.854;2.860;2023-05-29T00:51:10;15.23;;;5.47;;
78844;SDS011;68195;50.854;2.860;2023-05-29T00:53:40;12.18;;;5.53;;
78844;SDS011;68195;50.854;2.860;2023-05-29T00:56:08;12.13;;;4.55;;
78844;SDS011;68195;50.854;2.860;2023-05-29T00:58:40;8.93;;;5.07;;
78844;SDS011;68195;50.854;2.860;2023-05-29T01:01:06;11.38;;;4.70;;
78844;SDS011;68195;50.854;2.860;2023-05-29T01:03:35;11.40;;;4.45;;
78844;SDS011;68195;50.854;2.860;2023-05-29T01:06:00;12.68;;;4.38;;
78844;SDS011;68195;50.854;2.860;2023-05-29T01:08:32;9.27;;;3.72;;
78844;SDS011;68195;50.854;2.860;2023-05-29T01:11:01;9.75;;;4.20;;
78844;SDS011;68195;50.854;2.860;2023-05-29T01:13:39;11.45;;;3.75;;
78844;SDS011;68195;50.854;2.860;2023-05-29T01:16:15;7.50;;;3.67;;
78844;SDS011;68195;50.854;2.860;2023-05-29T01:26:45;8.30;;;3.05;;
78844;SDS011;68195;50.854;2.860;2023-05-29T01:29:24;8.80;;;3.35;;
78844;SDS011;68195;50.854;2.860;2023-05-29T01:31:52;10.75;;;3.15;;
78844;SDS011;68195;50.854;2.860;2023-05-29T01:34:19;10.60;;;3.33;;
78844;SDS011;68195;50.854;2.860;2023-05-29T01:36:47;7.88;;;2.60;;
78844;SDS011;68195;50.854;2.860;2023-05-29T01:39:12;11.07;;;3.20;;
78844;SDS011;68195;50.854;2.860;2023-05-29T01:41:43;8.63;;;3.75;;
78844;SDS011;68195;50.854;2.860;2023-05-29T01:44:12;9.55;;;2.75;;
78844;SDS011;68195;50.854;2.860;2023-05-29T01:46:41;10.50;;;2.95;;
78844;SDS011;68195;50.854;2.860;2023-05-29T01:49:10;10.45;;;2.92;;
78844;SDS011;68195;50.854;2.860;2023-05-29T01:51:40;5.50;;;2.45;;
78844;SDS011;68195;50.854;2.860;2023-05-29T01:54:08;6.88;;;3.00;;
78844;SDS011;68195;50.854;2.860;2023-05-29T01:56:34;8.55;;;3.20;;
78844;SDS011;68195;50.854;2.860;2023-05-29T01:59:03;10.10;;;3.03;;
78844;SDS011;68195;50.854;2.860;2023-05-29T02:01:31;6.32;;;3.00;;
78844;SDS011;68195;50.854;2.860;2023-05-29T02:03:57;12.48;;;3.65;;
78844;SDS011;68195;50.854;2.860;2023-05-29T02:08:51;9.57;;;2.60;;
78844;SDS011;68195;50.854;2.860;2023-05-29T02:11:16;9.80;;;2.70;;
78844;SDS011;68195;50.854;2.860;2023-05-29T02:13:41;9.18;;;2.50;;
78844;SDS011;68195;50.854;2.860;2023-05-29T02:16:12;11.45;;;3.33;;
78844;SDS011;68195;50.854;2.860;2023-05-29T02:18:39;11.55;;;3.28;;
78844;SDS011;68195;50.854;2.860;2023-05-29T02:21:08;9.10;;;3.30;;
78844;SDS011;68195;50.854;2.860;2023-05-29T02:23:34;9.35;;;3.60;;
78844;SDS011;68195;50.854;2.860;2023-05-29T02:26:04;8.27;;;2.90;;
78844;SDS011;68195;50.854;2.860;2023-05-29T02:28:29;10.73;;;2.75;;
78844;SDS011;68195;50.854;2.860;2023-05-29T02:30:58;8.88;;;3.17;;
78844;SDS011;68195;50.854;2.860;2023-05-29T02:33:23;11.07;;;3.08;;
78844;SDS011;68195;50.854;2.860;2023-05-29T02:35:51;9.02;;;3.00;;
78844;SDS011;68195;50.854;2.860;2023-05-29T02:38:19;8.60;;;2.35;;
78844;SDS011;68195;50.854;2.860;2023-05-29T02:40:46;9.02;;;3.10;;
78844;SDS011;68195;50.854;2.860;2023-05-29T02:43:12;6.30;;;2.53;;
78844;SDS011;68195;50.854;2.860;2023-05-29T02:45:38;9.90;;;2.63;;
78844;SDS011;68195;50.854;2.860;2023-05-29T02:48:08;8.55;;;2.28;;
78844;SDS011;68195;50.854;2.860;2023-05-29T02:50:38;5.15;;;2.22;;
78844;SDS011;68195;50.854;2.860;2023-05-29T02:53:03;8.43;;;2.63;;
78844;SDS011;68195;50.854;2.860;2023-05-29T02:55:33;6.70;;;2.50;;
78844;SDS011;68195;50.854;2.860;2023-05-29T02:58:03;10.80;;;3.22;;
78844;SDS011;68195;50.854;2.860;2023-05-29T03:00:33;5.75;;;2.35;;
78844;SDS011;68195;50.854;2.860;2023-05-29T03:03:02;7.97;;;2.67;;
78844;SDS011;68195;50.854;2.860;2023-05-29T03:05:32;10.80;;;2.70;;
78844;SDS011;68195;50.854;2.860;2023-05-29T03:07:58;9.70;;;2.70;;
78844;SDS011;68195;50.854;2.860;2023-05-29T03:10:25;10.10;;;2.85;;
78844;SDS011;68195;50.854;2.860;2023-05-29T03:12:56;8.48;;;3.88;;
78844;SDS011;68195;50.854;2.860;2023-05-29T03:15:21;9.45;;;3.22;;
78844;SDS011;68195;50.854;2.860;2023-05-29T03:17:49;20.58;;;2.85;;
78844;SDS011;68195;50.854;2.860;2023-05-29T03:20:16;8.52;;;3.78;;
78844;SDS011;68195;50.854;2.860;2023-05-29T03:22:42;9.45;;;2.53;;
78844;SDS011;68195;50.854;2.860;2023-05-29T03:25:07;12.38;;;3.00;;
78844;SDS011;68195;50.854;2.860;2023-05-29T03:27:33;9.52;;;3.03;;
78844;SDS011;68195;50.854;2.860;2023-05-29T03:29:58;7.75;;;2.97;;
78844;SDS011;68195;50.854;2.860;2023-05-29T03:32:30;9.48;;;2.83;;
78844;SDS011;68195;50.854;2.860;2023-05-29T03:34:55;8.93;;;2.88;;
78844;SDS011;68195;50.854;2.860;2023-05-29T03:37:25;10.95;;;2.97;;
78844;SDS011;68195;50.854;2.860;2023-05-29T03:39:55;7.00;;;2.53;;
78844;SDS011;68195;50.854;2.860;2023-05-29T03:42:23;8.65;;;3.53;;
78844;SDS011;68195;50.854;2.860;2023-05-29T03:44:50;9.98;;;3.13;;
78844;SDS011;68195;50.854;2.860;2023-05-29T03:47:16;10.55;;;4.18;;
78844;SDS011;68195;50.854;2.860;2023-05-29T03:49:43;12.82;;;4.00;;
78844;SDS011;68195;50.854;2.860;2023-05-29T03:52:11;11.13;;;3.35;;
78844;SDS011;68195;50.854;2.860;2023-05-29T03:54:39;11.07;;;2.97;;
78844;SDS011;68195;50.854;2.860;2023-05-29T03:57:07;9.43;;;3.35;;
78844;SDS011;68195;50.854;2.860;2023-05-29T03:59:35;14.77;;;3.08;;
78844;SDS011;68195;50.854;2.860;2023-05-29T04:02:00;7.95;;;3.17;;
78844;SDS011;68195;50.854;2.860;2023-05-29T04:04:28;8.20;;;2.65;;
78844;SDS011;68195;50.854;2.860;2023-05-29T04:06:56;11.40;;;3.15;;
78844;SDS011;68195;50.854;2.860;2023-05-29T04:09:26;8.18;;;2.97;;
78844;SDS011;68195;50.854;2.860;2023-05-29T04:11:51;6.43;;;2.53;;
78844;SDS011;68195;50.854;2.860;2023-05-29T04:14:17;10.95;;;2.80;;
78844;SDS011;68195;50.854;2.860;2023-05-29T04:16:45;13.75;;;3.13;;
78844;SDS011;68195;50.854;2.860;2023-05-29T04:19:11;9.13;;;2.47;;
78844;SDS011;68195;50.854;2.860;2023-05-29T04:21:36;8.63;;;2.35;;
78844;SDS011;68195;50.854;2.860;2023-05-29T04:24:02;10.07;;;3.80;;
78844;SDS011;68195;50.854;2.860;2023-05-29T04:26:27;7.65;;;2.95;;
78844;SDS011;68195;50.854;2.860;2023-05-29T04:29:00;9.05;;;4.05;;
78844;SDS011;68195;50.854;2.860;2023-05-29T04:31:25;9.55;;;3.58;;
78844;SDS011;68195;50.854;2.860;2023-05-29T04:36:26;16.00;;;3.17;;
78844;SDS011;68195;50.854;2.860;2023-05-29T04:38:54;12.63;;;3.15;;
78844;SDS011;68195;50.854;2.860;2023-05-29T04:41:20;12.75;;;3.30;;
78844;SDS011;68195;50.854;2.860;2023-05-29T04:43:48;17.85;;;3.35;;
78844;SDS011;68195;50.854;2.860;2023-05-29T04:48:45;10.88;;;3.03;;
78844;SDS011;68195;50.854;2.860;2023-05-29T04:51:11;11.95;;;3.25;;
78844;SDS011;68195;50.854;2.860;2023-05-29T04:53:40;10.55;;;2.75;;
78844;SDS011;68195;50.854;2.860;2023-05-29T04:56:06;6.80;;;2.80;;
78844;SDS011;68195;50.854;2.860;2023-05-29T04:58:36;14.35;;;3.08;;
78844;SDS011;68195;50.854;2.860;2023-05-29T05:01:02;8.13;;;2.78;;
78844;SDS011;68195;50.854;2.860;2023-05-29T05:03:33;7.00;;;2.92;;
78844;SDS011;68195;50.854;2.860;2023-05-29T05:05:59;9.95;;;2.92;;
78844;SDS011;68195;50.854;2.860;2023-05-29T05:08:28;10.05;;;3.50;;
78844;SDS011;68195;50.854;2.860;2023-05-29T05:10:54;12.52;;;3.25;;
78844;SDS011;68195;50.854;2.860;2023-05-29T05:13:20;12.10;;;2.70;;
78844;SDS011;68195;50.854;2.860;2023-05-29T05:15:45;10.05;;;2.92;;
78844;SDS011;68195;50.854;2.860;2023-05-29T05:18:11;9.88;;;3.28;;
78844;SDS011;68195;50.854;2.860;2023-05-29T05:20:36;10.23;;;2.90;;
78844;SDS011;68195;50.854;2.860;2023-05-29T05:23:04;13.00;;;3.67;;
78844;SDS011;68195;50.854;2.860;2023-05-29T05:25:32;11.60;;;3.67;;
78844;SDS011;68195;50.854;2.860;2023-05-29T05:28:00;12.57;;;3.92;;
78844;SDS011;68195;50.854;2.860;2023-05-29T05:30:28;9.98;;;3.38;;
78844;SDS011;68195;50.854;2.860;2023-05-29T05:32:58;7.40;;;3.50;;
78844;SDS011;68195;50.854;2.860;2023-05-29T05:35:24;10.13;;;2.85;;
78844;SDS011;68195;50.854;2.860;2023-05-29T05:37:49;7.65;;;2.75;;
78844;SDS011;68195;50.854;2.860;2023-05-29T05:40:15;8.15;;;2.33;;
78844;SDS011;68195;50.854;2.860;2023-05-29T05:42:40;11.52;;;3.72;;
78844;SDS011;68195;50.854;2.860;2023-05-29T05:45:06;8.18;;;3.40;;
78844;SDS011;68195;50.854;2.860;2023-05-29T05:47:34;9.00;;;3.03;;
78844;SDS011;68195;50.854;2.860;2023-05-29T05:50:00;10.60;;;3.10;;
78844;SDS011;68195;50.854;2.860;2023-05-29T05:52:25;10.55;;;3.45;;
78844;SDS011;68195;50.854;2.860;2023-05-29T05:54:56;8.43;;;2.97;;
78844;SDS011;68195;50.854;2.860;2023-05-29T05:57:24;12.45;;;3.10;;
78844;SDS011;68195;50.854;2.860;2023-05-29T05:59:52;13.57;;;2.53;;
78844;SDS011;68195;50.854;2.860;2023-05-29T06:02:17;6.93;;;2.90;;
78844;SDS011;68195;50.854;2.860;2023-05-29T06:04:43;11.38;;;3.00;;
78844;SDS011;68195;50.854;2.860;2023-05-29T06:07:08;7.43;;;2.38;;
78844;SDS011;68195;50.854;2.860;2023-05-29T06:09:41;10.63;;;3.05;;
78844;SDS011;68195;50.854;2.860;2023-05-29T06:12:07;6.10;;;2.65;;
78844;SDS011;68195;50.854;2.860;2023-05-29T06:14:33;7.45;;;2.60;;
78844;SDS011;68195;50.854;2.860;2023-05-29T06:17:03;6.25;;;2.25;;
78844;SDS011;68195;50.854;2.860;2023-05-29T06:19:31;10.65;;;2.50;;
78844;SDS011;68195;50.854;2.860;2023-05-29T06:21:57;6.32;;;2.20;;
78844;SDS011;68195;50.854;2.860;2023-05-29T06:24:22;5.97;;;2.35;;
78844;SDS011;68195;50.854;2.860;2023-05-29T06:26:48;10.57;;;3.13;;
78844;SDS011;68195;50.854;2.860;2023-05-29T06:29:14;8.98;;;1.90;;
78844;SDS011;68195;50.854;2.860;2023-05-29T06:31:41;7.50;;;2.45;;
78844;SDS011;68195;50.854;2.860;2023-05-29T06:34:07;7.32;;;2.25;;
78844;SDS011;68195;50.854;2.860;2023-05-29T06:39:03;6.53;;;2.13;;
78844;SDS011;68195;50.854;2.860;2023-05-29T06:41:28;8.05;;;1.85;;
78844;SDS011;68195;50.854;2.860;2023-05-29T06:43:56;6.85;;;1.92;;
78844;SDS011;68195;50.854;2.860;2023-05-29T06:46:25;9.20;;;2.63;;
78844;SDS011;68195;50.854;2.860;2023-05-29T06:48:50;4.68;;;2.10;;
78844;SDS011;68195;50.854;2.860;2023-05-29T06:53:41;3.00;;;1.70;;
78844;SDS011;68195;50.854;2.860;2023-05-29T06:58:32;5.97;;;1.95;;
78844;SDS011;68195;50.854;2.860;2023-05-29T07:00:58;11.40;;;3.50;;
78844;SDS011;68195;50.854;2.860;2023-05-29T07:03:27;9.10;;;3.03;;
78844;SDS011;68195;50.854;2.860;2023-05-29T07:05:54;9.07;;;2.35;;
78844;SDS011;68195;50.854;2.860;2023-05-29T07:08:19;7.18;;;1.98;;
78844;SDS011;68195;50.854;2.860;2023-05-29T07:10:45;7.13;;;2.13;;
78844;SDS011;68195;50.854;2.860;2023-05-29T07:15:40;10.52;;;2.03;;
78844;SDS011;68195;50.854;2.860;2023-05-29T07:18:05;3.35;;;1.60;;
78844;SDS011;68195;50.854;2.860;2023-05-29T07:20:36;9.13;;;2.75;;
78844;SDS011;68195;50.854;2.860;2023-05-29T07:23:01;8.65;;;2.25;;
78844;SDS011;68195;50.854;2.860;2023-05-29T07:25:29;9.20;;;2.50;;
78844;SDS011;68195;50.854;2.860;2023-05-29T07:28:00;7.07;;;2.40;;
78844;SDS011;68195;50.854;2.860;2023-05-29T07:30:25;7.78;;;1.90;;
78844;SDS011;68195;50.854;2.860;2023-05-29T07:32:53;6.35;;;2.05;;
78844;SDS011;68195;50.854;2.860;2023-05-29T07:35:18;6.85;;;2.22;;
78844;SDS011;68195;50.854;2.860;2023-05-29T07:37:46;4.85;;;1.80;;
78844;SDS011;68195;50.854;2.860;2023-05-29T07:40:17;6.07;;;2.15;;
78844;SDS011;68195;50.854;2.860;2023-05-29T07:42:43;3.67;;;1.67;;
78844;SDS011;68195;50.854;2.860;2023-05-29T07:45:10;7.22;;;2.22;;
78844;SDS011;68195;50.854;2.860;2023-05-29T07:47:38;4.50;;;1.70;;
78844;SDS011;68195;50.854;2.860;2023-05-29T07:50:05;7.53;;;1.88;;
78844;SDS011;68195;50.854;2.860;2023-05-29T07:52:31;6.53;;;2.28;;
78844;SDS011;68195;50.854;2.860;2023-05-29T07:57:29;4.47;;;2.70;;
78844;SDS011;68195;50.854;2.860;2023-05-29T07:59:59;6.80;;;2.25;;
78844;SDS011;68195;50.854;2.860;2023-05-29T08:02:27;7.75;;;1.90;;
78844;SDS011;68195;50.854;2.860;2023-05-29T08:04:54;6.25;;;1.95;;
78844;SDS011;68195;50.854;2.860;2023-05-29T08:09:47;6.05;;;1.48;;
78844;SDS011;68195;50.854;2.860;2023-05-29T08:14:40;5.80;;;2.22;;
78844;SDS011;68195;50.854;2.860;2023-05-29T08:17:09;5.57;;;2.05;;
78844;SDS011;68195;50.854;2.860;2023-05-29T08:22:05;7.28;;;1.88;;
78844;SDS011;68195;50.854;2.860;2023-05-29T08:26:58;6.90;;;2.17;;
78844;SDS011;68195;50.854;2.860;2023-05-29T08:29:27;7.85;;;2.13;;
78844;SDS011;68195;50.854;2.860;2023-05-29T08:31:55;5.43;;;1.77;;
78844;SDS011;68195;50.854;2.860;2023-05-29T08:36:46;4.07;;;1.70;;
78844;SDS011;68195;50.854;2.860;2023-05-29T08:44:22;4.75;;;1.65;;
78844;SDS011;68195;50.854;2.860;2023-05-29T08:49:19;8.13;;;1.92;;
78844;SDS011;68195;50.854;2.860;2023-05-29T08:51:49;6.07;;;1.83;;
78844;SDS011;68195;50.854;2.860;2023-05-29T08:54:26;5.63;;;2.60;;
78844;SDS011;68195;50.854;2.860;2023-05-29T08:56:56;9.27;;;2.40;;
78844;SDS011;68195;50.854;2.860;2023-05-29T08:59:25;8.70;;;1.98;;
78844;SDS011;68195;50.854;2.860;2023-05-29T09:01:55;10.32;;;3.38;;
78844;SDS011;68195;50.854;2.860;2023-05-29T09:06:45;9.20;;;2.28;;
78844;SDS011;68195;50.854;2.860;2023-05-29T09:09:12;12.50;;;3.85;;
78844;SDS011;68195;50.854;2.860;2023-05-29T09:11:41;11.15;;;2.10;;
78844;SDS011;68195;50.854;2.860;2023-05-29T09:17:01;8.70;;;1.98;;
78844;SDS011;68195;50.854;2.860;2023-05-29T09:19:28;9.20;;;2.53;;
78844;SDS011;68195;50.854;2.860;2023-05-29T09:22:11;7.15;;;2.75;;
78844;SDS011;68195;50.854;2.860;2023-05-29T09:24:42;6.38;;;2.67;;
78844;SDS011;68195;50.854;2.860;2023-05-29T09:27:09;9.02;;;3.78;;
78844;SDS011;68195;50.854;2.860;2023-05-29T09:29:38;5.93;;;2.13;;
78844;SDS011;68195;50.854;2.860;2023-05-29T09:32:11;7.35;;;2.55;;
78844;SDS011;68195;50.854;2.860;2023-05-29T09:34:39;9.05;;;2.40;;
78844;SDS011;68195;50.854;2.860;2023-05-29T09:39:34;6.50;;;2.60;;
78844;SDS011;68195;50.854;2.860;2023-05-29T09:42:06;8.68;;;2.30;;
78844;SDS011;68195;50.854;2.860;2023-05-29T09:46:59;4.78;;;2.38;;
78844;SDS011;68195;50.854;2.860;2023-05-29T09:51:57;9.07;;;2.40;;
78844;SDS011;68195;50.854;2.860;2023-05-29T09:54:29;9.70;;;2.88;;
78844;SDS011;68195;50.854;2.860;2023-05-29T09:57:00;5.07;;;2.20;;
78844;SDS011;68195;50.854;2.860;2023-05-29T09:59:29;9.45;;;3.92;;
78844;SDS011;68195;50.854;2.860;2023-05-29T10:04:33;8.27;;;2.58;;
78844;SDS011;68195;50.854;2.860;2023-05-29T10:07:08;8.95;;;2.13;;
78844;SDS011;68195;50.854;2.860;2023-05-29T10:09:42;6.25;;;2.67;;
78844;SDS011;68195;50.854;2.860;2023-05-29T10:12:11;11.73;;;2.83;;
78844;SDS011;68195;50.854;2.860;2023-05-29T10:14:39;8.10;;;2.55;;
78844;SDS011;68195;50.854;2.860;2023-05-29T10:17:07;6.40;;;2.53;;
78844;SDS011;68195;50.854;2.860;2023-05-29T10:19:35;6.68;;;2.42;;
78844;SDS011;68195;50.854;2.860;2023-05-29T10:22:02;7.20;;;2.63;;
78844;SDS011;68195;50.854;2.860;2023-05-29T10:24:31;7.18;;;2.08;;
78844;SDS011;68195;50.854;2.860;2023-05-29T10:27:00;6.90;;;2.70;;
78844;SDS011;68195;50.854;2.860;2023-05-29T10:29:29;9.18;;;3.05;;
78844;SDS011;68195;50.854;2.860;2023-05-29T10:34:40;6.85;;;2.30;;
78844;SDS011;68195;50.854;2.860;2023-05-29T10:40:05;6.93;;;3.03;;
78844;SDS011;68195;50.854;2.860;2023-05-29T10:45:04;8.40;;;2.45;;
78844;SDS011;68195;50.854;2.860;2023-05-29T10:47:30;8.68;;;2.95;;
78844;SDS011;68195;50.854;2.860;2023-05-29T10:50:00;12.15;;;3.47;;
78844;SDS011;68195;50.854;2.860;2023-05-29T10:52:30;10.80;;;3.55;;
78844;SDS011;68195;50.854;2.860;2023-05-29T10:54:59;8.15;;;2.83;;
78844;SDS011;68195;50.854;2.860;2023-05-29T10:57:25;10.40;;;3.33;;
78844;SDS011;68195;50.854;2.860;2023-05-29T11:00:05;9.00;;;3.50;;
78844;SDS011;68195;50.854;2.860;2023-05-29T11:02:34;12.40;;;3.80;;
78844;SDS011;68195;50.854;2.860;2023-05-29T11:05:17;11.90;;;3.05;;
78844;SDS011;68195;50.854;2.860;2023-05-29T11:10:45;11.23;;;3.55;;
78844;SDS011;68195;50.854;2.860;2023-05-29T11:13:32;7.45;;;3.15;;
78844;SDS011;68195;50.854;2.860;2023-05-29T11:16:11;8.93;;;3.13;;
78844;SDS011;68195;50.854;2.860;2023-05-29T11:18:40;9.35;;;3.45;;
78844;SDS011;68195;50.854;2.860;2023-05-29T11:21:12;9.85;;;4.15;;
78844;SDS011;68195;50.854;2.860;2023-05-29T11:23:40;7.07;;;2.92;;
78844;SDS011;68195;50.854;2.860;2023-05-29T11:26:07;12.80;;;3.45;;
78844;SDS011;68195;50.854;2.860;2023-05-29T11:28:36;9.13;;;4.13;;
78844;SDS011;68195;50.854;2.860;2023-05-29T11:31:07;12.50;;;3.10;;
78844;SDS011;68195;50.854;2.860;2023-05-29T11:33:38;10.10;;;2.97;;
78844;SDS011;68195;50.854;2.860;2023-05-29T11:36:05;12.15;;;4.75;;
78844;SDS011;68195;50.854;2.860;2023-05-29T11:38:33;8.27;;;3.40;;
78844;SDS011;68195;50.854;2.860;2023-05-29T11:41:01;11.15;;;3.58;;
78844;SDS011;68195;50.854;2.860;2023-05-29T11:43:28;8.15;;;3.00;;
78844;SDS011;68195;50.854;2.860;2023-05-29T11:45:56;7.93;;;3.47;;
78844;SDS011;68195;50.854;2.860;2023-05-29T11:48:26;9.48;;;3.33;;
78844;SDS011;68195;50.854;2.860;2023-05-29T11:50:54;7.15;;;2.83;;
78844;SDS011;68195;50.854;2.860;2023-05-29T11:53:22;6.95;;;2.92;;
78844;SDS011;68195;50.854;2.860;2023-05-29T11:55:51;7.30;;;2.85;;
78844;SDS011;68195;50.854;2.860;2023-05-29T11:58:16;8.85;;;2.72;;
78844;SDS011;68195;50.854;2.860;2023-05-29T12:00:42;8.07;;;2.95;;
78844;SDS011;68195;50.854;2.860;2023-05-29T12:03:08;7.05;;;2.80;;
78844;SDS011;68195;50.854;2.860;2023-05-29T12:05:47;7.38;;;4.05;;
78844;SDS011;68195;50.854;2.860;2023-05-29T12:08:15;7.95;;;2.80;;
78844;SDS011;68195;50.854;2.860;2023-05-29T12:10:50;7.13;;;2.97;;
78844;SDS011;68195;50.854;2.860;2023-05-29T12:13:18;9.75;;;3.40;;
78844;SDS011;68195;50.854;2.860;2023-05-29T12:15:44;10.07;;;3.08;;
78844;SDS011;68195;50.854;2.860;2023-05-29T12:18:14;6.63;;;2.45;;
78844;SDS011;68195;50.854;2.860;2023-05-29T12:20:42;7.95;;;3.20;;
78844;SDS011;68195;50.854;2.860;2023-05-29T12:23:10;12.15;;;3.63;;
78844;SDS011;68195;50.854;2.860;2023-05-29T12:25:37;7.93;;;3.38;;
78844;SDS011;68195;50.854;2.860;2023-05-29T12:28:07;14.13;;;4.07;;
78844;SDS011;68195;50.854;2.860;2023-05-29T12:30:36;9.65;;;2.90;;
78844;SDS011;68195;50.854;2.860;2023-05-29T12:33:09;11.73;;;3.47;;
78844;SDS011;68195;50.854;2.860;2023-05-29T12:35:49;9.68;;;3.28;;
78844;SDS011;68195;50.854;2.860;2023-05-29T12:38:15;7.40;;;3.28;;
78844;SDS011;68195;50.854;2.860;2023-05-29T12:40:48;7.75;;;3.22;;
78844;SDS011;68195;50.854;2.860;2023-05-29T12:43:14;11.45;;;3.70;;
78844;SDS011;68195;50.854;2.860;2023-05-29T12:45:39;12.98;;;3.15;;
78844;SDS011;68195;50.854;2.860;2023-05-29T12:48:05;8.27;;;3.30;;
78844;SDS011;68195;50.854;2.860;2023-05-29T12:50:35;9.70;;;3.65;;
78844;SDS011;68195;50.854;2.860;2023-05-29T12:55:32;12.77;;;3.25;;
78844;SDS011;68195;50.854;2.860;2023-05-29T12:58:04;9.85;;;3.42;;
78844;SDS011;68195;50.854;2.860;2023-05-29T13:00:33;11.95;;;3.55;;
78844;SDS011;68195;50.854;2.860;2023-05-29T13:02:59;7.75;;;3.30;;
78844;SDS011;68195;50.854;2.860;2023-05-29T13:05:27;12.32;;;3.40;;
78844;SDS011;68195;50.854;2.860;2023-05-29T13:07:53;10.88;;;2.83;;
78844;SDS011;68195;50.854;2.860;2023-05-29T13:10:21;11.52;;;3.22;;
78844;SDS011;68195;50.854;2.860;2023-05-29T13:12:48;8.70;;;3.30;;
78844;SDS011;68195;50.854;2.860;2023-05-29T13:15:21;6.55;;;2.80;;
78844;SDS011;68195;50.854;2.860;2023-05-29T13:17:51;10.43;;;3.30;;
78844;SDS011;68195;50.854;2.860;2023-05-29T13:20:17;6.75;;;2.88;;
78844;SDS011;68195;50.854;2.860;2023-05-29T13:22:45;5.60;;;3.05;;
78844;SDS011;68195;50.854;2.860;2023-05-29T13:25:13;10.32;;;3.05;;
78844;SDS011;68195;50.854;2.860;2023-05-29T13:27:40;4.95;;;2.72;;
78844;SDS011;68195;50.854;2.860;2023-05-29T13:30:07;12.02;;;2.97;;
78844;SDS011;68195;50.854;2.860;2023-05-29T13:32:33;14.02;;;3.33;;
78844;SDS011;68195;50.854;2.860;2023-05-29T13:34:59;8.05;;;3.05;;
78844;SDS011;68195;50.854;2.860;2023-05-29T13:37:25;11.82;;;3.60;;
78844;SDS011;68195;50.854;2.860;2023-05-29T13:39:52;14.77;;;3.15;;
78844;SDS011;68195;50.854;2.860;2023-05-29T13:42:18;11.73;;;2.92;;
78844;SDS011;68195;50.854;2.860;2023-05-29T13:44:44;11.50;;;4.38;;
78844;SDS011;68195;50.854;2.860;2023-05-29T13:49:35;6.57;;;2.63;;
78844;SDS011;68195;50.854;2.860;2023-05-29T13:52:03;10.27;;;2.58;;
78844;SDS011;68195;50.854;2.860;2023-05-29T13:54:29;12.25;;;3.38;;
78844;SDS011;68195;50.854;2.860;2023-05-29T13:57:04;14.77;;;3.45;;
78844;SDS011;68195;50.854;2.860;2023-05-29T13:59:31;14.57;;;3.42;;
78844;SDS011;68195;50.854;2.860;2023-05-29T14:02:00;13.00;;;3.13;;
78844;SDS011;68195;50.854;2.860;2023-05-29T14:04:26;11.48;;;3.10;;
78844;SDS011;68195;50.854;2.860;2023-05-29T14:06:52;10.32;;;2.95;;
78844;SDS011;68195;50.854;2.860;2023-05-29T14:09:21;10.43;;;3.17;;
78844;SDS011;68195;50.854;2.860;2023-05-29T14:11:57;15.52;;;3.08;;
78844;SDS011;68195;50.854;2.860;2023-05-29T14:14:23;13.82;;;3.15;;
78844;SDS011;68195;50.854;2.860;2023-05-29T14:16:49;11.27;;;2.95;;
78844;SDS011;68195;50.854;2.860;2023-05-29T14:19:16;13.18;;;3.28;;
78844;SDS011;68195;50.854;2.860;2023-05-29T14:21:42;11.95;;;3.35;;
78844;SDS011;68195;50.854;2.860;2023-05-29T14:24:08;12.15;;;3.67;;
78844;SDS011;68195;50.854;2.860;2023-05-29T14:26:33;12.70;;;2.30;;
78844;SDS011;68195;50.854;2.860;2023-05-29T14:29:02;9.15;;;2.70;;
78844;SDS011;68195;50.854;2.860;2023-05-29T14:31:28;11.23;;;2.85;;
78844;SDS011;68195;50.854;2.860;2023-05-29T14:33:56;8.35;;;3.53;;
78844;SDS011;68195;50.854;2.860;2023-05-29T14:38:46;11.37;;;3.30;;
78844;SDS011;68195;50.854;2.860;2023-05-29T14:41:16;6.72;;;2.13;;
78844;SDS011;68195;50.854;2.860;2023-05-29T14:43:42;13.95;;;7.30;;
78844;SDS011;68195;50.854;2.860;2023-05-29T14:46:10;12.57;;;2.83;;
78844;SDS011;68195;50.854;2.860;2023-05-29T14:48:36;12.20;;;2.80;;
78844;SDS011;68195;50.854;2.860;2023-05-29T14:51:02;9.27;;;2.95;;
78844;SDS011;68195;50.854;2.860;2023-05-29T14:53:27;13.18;;;3.92;;
78844;SDS011;68195;50.854;2.860;2023-05-29T14:55:56;15.10;;;3.85;;
78844;SDS011;68195;50.854;2.860;2023-05-29T14:58:24;12.55;;;2.70;;
78844;SDS011;68195;50.854;2.860;2023-05-29T15:00:52;9.98;;;3.45;;
78844;SDS011;68195;50.854;2.860;2023-05-29T15:03:18;11.90;;;2.78;;
78844;SDS011;68195;50.854;2.860;2023-05-29T15:08:08;11.30;;;3.13;;
78844;SDS011;68195;50.854;2.860;2023-05-29T15:10:36;12.95;;;3.42;;
78844;SDS011;68195;50.854;2.860;2023-05-29T15:13:04;11.15;;;3.72;;
78844;SDS011;68195;50.854;2.860;2023-05-29T15:15:31;10.00;;;2.65;;
78844;SDS011;68195;50.854;2.860;2023-05-29T15:20:22;14.97;;;5.57;;
78844;SDS011;68195;50.854;2.860;2023-05-29T15:22:49;10.40;;;3.85;;
78844;SDS011;68195;50.854;2.860;2023-05-29T15:25:15;10.30;;;3.33;;
78844;SDS011;68195;50.854;2.860;2023-05-29T15:27:42;16.70;;;3.60;;
78844;SDS011;68195;50.854;2.860;2023-05-29T15:32:37;13.20;;;3.97;;
78844;SDS011;68195;50.854;2.860;2023-05-29T15:35:04;10.50;;;3.63;;
78844;SDS011;68195;50.854;2.860;2023-05-29T15:39:55;16.35;;;3.42;;
78844;SDS011;68195;50.854;2.860;2023-05-29T15:42:23;9.32;;;3.60;;
78844;SDS011;68195;50.854;2.860;2023-05-29T15:47:16;10.87;;;3.43;;
78844;SDS011;68195;50.854;2.860;2023-05-29T15:49:41;13.73;;;5.03;;
78844;SDS011;68195;50.854;2.860;2023-05-29T15:54:32;10.45;;;3.08;;
78844;SDS011;68195;50.854;2.860;2023-05-29T15:56:58;10.68;;;3.45;;
78844;SDS011;68195;50.854;2.860;2023-05-29T15:59:29;13.05;;;4.47;;
78844;SDS011;68195;50.854;2.860;2023-05-29T16:01:55;15.73;;;5.00;;
78844;SDS011;68195;50.854;2.860;2023-05-29T16:06:48;12.63;;;3.30;;
78844;SDS011;68195;50.854;2.860;2023-05-29T16:11:42;7.50;;;3.22;;
78844;SDS011;68195;50.854;2.860;2023-05-29T16:16:32;18.70;;;5.43;;
78844;SDS011;68195;50.854;2.860;2023-05-29T16:21:24;8.68;;;3.30;;
78844;SDS011;68195;50.854;2.860;2023-05-29T16:26:21;14.68;;;3.80;;
78844;SDS011;68195;50.854;2.860;2023-05-29T16:31:12;13.83;;;3.83;;
78844;SDS011;68195;50.854;2.860;2023-05-29T16:36:04;13.57;;;5.20;;
78844;SDS011;68195;50.854;2.860;2023-05-29T16:38:30;14.18;;;4.45;;